createdAt,value
2019-04-06T00:01:00.023Z,76.43
2019-04-06T00:03:29.505Z,75.77
2019-04-06T00:05:58.923Z,76.19
2019-04-06T00:08:28.306Z,76.15
2019-04-06T00:10:57.877Z,75.82
2019-04-06T00:13:27.220Z,75.72
2019-04-06T00:15:59.332Z,75.79
2019-04-06T00:18:28.728Z,75.79
2019-04-06T00:20:58.282Z,76.23
2019-04-06T00:23:27.649Z,76.72
2019-04-06T00:25:57.171Z,75.96
2019-04-06T00:28:26.599Z,75.48
2019-04-06T00:31:06.146Z,75.47
2019-04-06T00:33:35.521Z,75.88
2019-04-06T00:36:04.930Z,76.38
2019-04-06T00:38:34.271Z,75.70
2019-04-06T00:41:03.720Z,75.69
2019-04-06T00:43:33.098Z,76.52
2019-04-06T00:46:02.550Z,75.76
2019-04-06T00:48:31.918Z,75.72
2019-04-06T00:51:01.396Z,76.43
2019-04-06T00:53:30.785Z,76.71
2019-04-06T00:56:00.376Z,76.27
2019-04-06T00:58:29.900Z,76.23
2019-04-06T01:00:59.295Z,76.19
2019-04-06T01:03:28.660Z,75.97
2019-04-06T01:05:58.092Z,76.09
2019-04-06T01:08:27.593Z,75.63
2019-04-06T01:10:57.153Z,75.93
2019-04-06T01:13:26.550Z,76.36
2019-04-06T01:15:55.952Z,76.47
2019-04-06T01:18:25.351Z,75.62
2019-04-06T01:20:54.842Z,76.84
2019-04-06T01:23:24.322Z,76.24
2019-04-06T01:25:53.710Z,75.83
2019-04-06T01:28:23.220Z,75.76
2019-04-06T01:30:53.662Z,76.29
2019-04-06T01:33:23.033Z,76.08
2019-04-06T01:35:52.508Z,75.27
2019-04-06T01:38:21.868Z,76.56
2019-04-06T01:40:52.805Z,75.99
2019-04-06T01:43:22.352Z,76.34
2019-04-06T01:45:51.803Z,76.67
2019-04-06T01:48:21.245Z,76.19
2019-04-06T01:50:50.601Z,76.43
2019-04-06T01:53:20.002Z,76.10
2019-04-06T01:55:49.345Z,75.74
2019-04-06T01:58:18.772Z,75.89
2019-04-06T02:01:04.796Z,75.87
2019-04-06T02:03:34.147Z,75.71
2019-04-06T02:06:05.200Z,75.86
2019-04-06T02:08:34.669Z,75.68
2019-04-06T02:11:04.080Z,76.23
2019-04-06T02:13:33.535Z,76.18
2019-04-06T02:16:02.864Z,75.30
2019-04-06T02:18:32.281Z,75.54
2019-04-06T02:21:01.733Z,75.53
2019-04-06T02:23:31.209Z,75.73
2019-04-06T02:26:01.737Z,75.90
2019-04-06T02:28:31.352Z,77.04
2019-04-06T02:31:10.249Z,76.94
2019-04-06T02:33:57.517Z,76.06
2019-04-06T02:36:47.226Z,77.04
2019-04-06T02:39:43.075Z,76.89
2019-04-06T02:42:25.740Z,76.39
2019-04-06T02:44:55.125Z,76.40
2019-04-06T02:47:24.517Z,76.89
2019-04-06T02:49:53.821Z,76.63
2019-04-06T02:52:23.272Z,76.75
2019-04-06T02:54:52.690Z,76.43
2019-04-06T02:57:23.869Z,76.08
2019-04-06T02:59:53.371Z,76.49
2019-04-06T03:02:22.737Z,76.96
2019-04-06T03:04:52.296Z,75.89
2019-04-06T03:07:21.648Z,77.48
2019-04-06T03:09:52.300Z,76.81
2019-04-06T03:12:21.743Z,76.59
2019-04-06T03:14:51.416Z,76.94
2019-04-06T03:17:20.947Z,76.77
2019-04-06T03:19:50.453Z,77.25
2019-04-06T03:22:19.861Z,77.31
2019-04-06T03:24:49.200Z,77.70
2019-04-06T03:27:18.782Z,77.09
2019-04-06T03:29:57.492Z,77.40
2019-04-06T03:32:19.356Z,76.51
2019-04-06T03:34:48.754Z,76.48
2019-04-06T03:37:18.285Z,76.55
2019-04-06T03:39:47.659Z,76.32
2019-04-06T03:42:20.565Z,76.54
2019-04-06T03:44:49.927Z,76.22
2019-04-06T03:47:19.357Z,76.61
2019-04-06T03:49:48.766Z,76.65
2019-04-06T03:52:18.207Z,76.58
2019-04-06T03:54:47.669Z,77.10
2019-04-06T03:57:17.294Z,76.84
2019-04-06T03:59:46.653Z,76.71
2019-04-06T04:02:19.152Z,77.08
2019-04-06T04:04:48.597Z,76.61
2019-04-06T04:07:18.101Z,76.85
2019-04-06T04:09:47.585Z,77.28
2019-04-06T04:12:18.675Z,77.22
2019-04-06T04:14:48.059Z,77.00
2019-04-06T04:17:17.390Z,77.39
2019-04-06T04:19:46.845Z,77.03
2019-04-06T04:22:16.303Z,76.77
2019-04-06T04:24:52.625Z,76.64
2019-04-06T04:27:29.874Z,76.60
2019-04-06T04:29:53.032Z,77.05
2019-04-06T04:32:22.465Z,76.86
2019-04-06T04:34:51.928Z,77.01
2019-04-06T04:37:21.307Z,76.75
2019-04-06T04:39:50.770Z,77.30
2019-04-06T04:42:20.194Z,76.64
2019-04-06T04:44:49.530Z,76.45
2019-04-06T04:47:18.831Z,76.46
2019-04-06T04:49:48.211Z,76.35
2019-04-06T04:52:17.533Z,76.44
2019-04-06T04:54:46.990Z,76.71
2019-04-06T04:57:16.368Z,76.75
2019-04-06T04:59:45.819Z,76.73
2019-04-06T05:02:15.102Z,76.57
2019-04-06T05:04:44.601Z,77.08
2019-04-06T05:07:14.271Z,77.12
2019-04-06T05:09:43.800Z,77.25
2019-04-06T05:12:13.119Z,76.91
2019-04-06T05:15:01.316Z,76.29
2019-04-06T05:17:30.887Z,76.54
2019-04-06T05:20:00.549Z,76.26
2019-04-06T05:22:29.866Z,76.15
2019-04-06T05:24:59.358Z,76.55
2019-04-06T05:27:28.761Z,76.90
2019-04-06T05:29:58.178Z,76.97
2019-04-06T05:32:27.814Z,77.44
2019-04-06T05:34:58.386Z,77.04
2019-04-06T05:37:28.206Z,76.62
2019-04-06T05:39:57.835Z,76.72
2019-04-06T05:42:27.199Z,76.84
2019-04-06T05:44:56.629Z,77.42
2019-04-06T05:47:25.994Z,76.87
2019-04-06T05:49:55.452Z,77.05
2019-04-06T05:52:24.888Z,76.46
2019-04-06T05:54:56.231Z,76.16
2019-04-06T05:57:25.374Z,76.88
2019-04-06T05:59:54.825Z,76.45
2019-04-06T06:02:24.285Z,76.36
2019-04-06T06:04:53.580Z,76.80
2019-04-06T06:07:22.939Z,76.30
2019-04-06T06:09:52.303Z,76.01
2019-04-06T06:12:21.571Z,75.44
2019-04-06T06:14:50.858Z,75.50
2019-04-06T06:17:20.178Z,75.63
2019-04-06T06:19:49.524Z,75.03
2019-04-06T06:22:18.858Z,75.19
2019-04-06T06:24:48.406Z,75.77
2019-04-06T06:27:17.723Z,74.93
2019-04-06T06:29:47.035Z,75.31
2019-04-06T06:32:16.381Z,75.69
2019-04-06T06:34:45.673Z,75.63
2019-04-06T06:37:15.031Z,75.40
2019-04-06T06:39:44.444Z,74.93
2019-04-06T06:42:14.854Z,74.81
2019-04-06T06:44:44.498Z,74.50
2019-04-06T06:47:15.495Z,74.08
2019-04-06T06:49:44.789Z,74.16
2019-04-06T06:52:14.205Z,73.45
2019-04-06T06:54:43.612Z,73.37
2019-04-06T06:57:12.976Z,72.72
2019-04-06T06:59:42.306Z,72.69
2019-04-06T07:02:11.610Z,72.93
2019-04-06T07:04:40.997Z,72.96
2019-04-06T07:07:10.278Z,72.06
2019-04-06T07:09:39.666Z,72.00
2019-04-06T07:12:09.009Z,72.37
2019-04-06T07:14:38.529Z,72.05
2019-04-06T07:17:07.902Z,71.64
2019-04-06T07:19:37.260Z,71.31
2019-04-06T07:22:06.640Z,70.78
2019-04-06T07:24:37.033Z,71.43
2019-04-06T07:27:06.551Z,71.25
2019-04-06T07:29:35.901Z,71.01
2019-04-06T07:32:05.464Z,71.04
2019-04-06T07:34:34.969Z,70.88
2019-04-06T07:37:04.282Z,70.15
2019-04-06T07:39:33.645Z,70.48
2019-04-06T07:42:03.086Z,69.76
2019-04-06T07:44:32.407Z,69.22
2019-04-06T07:47:01.704Z,69.91
2019-04-06T07:49:31.295Z,69.28
2019-04-06T07:52:00.577Z,68.55
2019-04-06T07:54:29.943Z,67.60
2019-04-06T07:56:59.263Z,66.84
2019-04-06T07:59:28.601Z,68.11
2019-04-06T08:01:57.909Z,68.26
2019-04-06T08:04:27.211Z,68.20
2019-04-06T08:06:59.736Z,68.37
2019-04-06T08:09:29.174Z,67.20
2019-04-06T08:12:01.647Z,66.75
2019-04-06T08:14:33.714Z,66.57
2019-04-06T08:17:03.067Z,66.76
2019-04-06T08:19:32.344Z,65.92
2019-04-06T08:22:01.780Z,64.82
2019-04-06T08:24:31.048Z,64.61
2019-04-06T08:27:00.427Z,62.54
2019-04-06T08:29:29.788Z,63.02
2019-04-06T08:31:59.065Z,63.40
2019-04-06T08:34:28.346Z,62.96
2019-04-06T08:36:57.724Z,62.97
2019-04-06T08:39:27.015Z,61.39
2019-04-06T08:41:56.335Z,62.46
2019-04-06T08:44:25.776Z,62.20
2019-04-06T08:46:55.030Z,62.53
2019-04-06T08:49:24.291Z,62.02
2019-04-06T08:51:53.595Z,61.83
2019-04-06T08:54:22.927Z,61.61
2019-04-06T08:56:52.229Z,61.14
2019-04-06T08:59:21.537Z,59.19
2019-04-06T09:01:50.933Z,58.90
2019-04-06T09:04:20.233Z,58.11
2019-04-06T09:06:49.564Z,58.10
2019-04-06T09:09:18.908Z,57.64
2019-04-06T09:11:48.192Z,57.15
2019-04-06T09:14:17.716Z,56.47
2019-04-06T09:16:47.355Z,55.90
2019-04-06T09:19:16.738Z,55.72
2019-04-06T09:21:46.068Z,56.08
2019-04-06T09:24:15.499Z,56.83
2019-04-06T09:26:44.816Z,56.53
2019-04-06T09:29:23.383Z,54.57
2019-04-06T09:31:45.203Z,55.14
2019-04-06T09:34:14.710Z,55.20
2019-04-06T09:36:43.981Z,53.89
2019-04-06T09:39:13.328Z,54.31
2019-04-06T09:41:42.589Z,54.61
2019-04-06T09:44:19.531Z,55.40
2019-04-06T09:47:28.272Z,55.26
2019-04-06T09:50:15.873Z,54.35
2019-04-06T09:53:11.456Z,55.40
2019-04-06T09:55:56.882Z,55.12
2019-04-06T09:58:45.373Z,55.15
2019-04-06T10:01:38.871Z,54.59
2019-04-06T10:04:21.261Z,53.77
2019-04-06T10:07:16.247Z,53.65
2019-04-06T10:10:07.755Z,53.21
2019-04-06T10:12:55.984Z,52.69
2019-04-06T10:15:41.612Z,52.33
2019-04-06T10:18:35.758Z,51.22
2019-04-06T10:21:24.177Z,52.04
2019-04-06T10:24:35.675Z,50.10
2019-04-06T10:27:24.053Z,49.90
2019-04-06T10:30:12.432Z,50.64
2019-04-06T10:33:00.587Z,50.01
2019-04-06T10:35:47.454Z,50.96
2019-04-06T10:38:26.065Z,50.30
2019-04-06T10:41:26.370Z,50.22
2019-04-06T10:44:08.075Z,51.29
2019-04-06T10:47:08.426Z,50.60
2019-04-06T10:49:58.381Z,50.96
2019-04-06T10:52:46.636Z,52.06
2019-04-06T10:55:38.213Z,52.07
2019-04-06T10:58:16.120Z,51.88
2019-04-06T11:01:09.691Z,51.88
2019-04-06T11:03:58.013Z,51.73
2019-04-06T11:06:36.296Z,53.32
2019-04-06T11:09:21.997Z,52.96
2019-04-06T11:12:25.397Z,52.74
2019-04-06T11:15:23.080Z,51.72
2019-04-06T11:18:29.535Z,49.80
2019-04-06T11:21:23.036Z,50.37
2019-04-06T11:24:11.695Z,50.27
2019-04-06T11:27:00.058Z,49.75
2019-04-06T11:29:40.040Z,50.24
2019-04-06T11:32:28.304Z,49.71
2019-04-06T11:35:24.206Z,50.28
2019-04-06T11:38:11.172Z,50.33
2019-04-06T11:41:08.836Z,49.63
2019-04-06T11:44:00.500Z,50.69
2019-04-06T11:46:48.186Z,51.32
2019-04-06T11:49:41.046Z,51.49
2019-04-06T11:52:41.636Z,50.21
2019-04-06T11:55:23.070Z,49.84
2019-04-06T11:58:27.072Z,48.33
2019-04-06T12:01:04.923Z,47.84
2019-04-06T12:04:02.381Z,47.35
2019-04-06T12:06:40.988Z,48.23
2019-04-06T12:09:47.600Z,47.56
2019-04-06T12:12:34.806Z,47.76
2019-04-06T12:15:29.209Z,46.92
2019-04-06T12:18:20.583Z,48.29
2019-04-06T12:21:07.783Z,48.36
2019-04-06T12:23:53.069Z,46.49
2019-04-06T12:26:47.426Z,46.61
2019-04-06T12:29:41.887Z,47.38
2019-04-06T12:32:30.144Z,47.84
2019-04-06T12:35:18.860Z,46.05
2019-04-06T12:38:10.191Z,46.47
2019-04-06T12:40:54.165Z,46.10
2019-04-06T12:43:57.746Z,45.84
2019-04-06T12:46:48.850Z,46.90
2019-04-06T12:49:36.265Z,45.80
2019-04-06T12:52:16.018Z,44.57
2019-04-06T12:55:03.443Z,44.86
2019-04-06T12:57:50.836Z,44.54
2019-04-06T13:00:52.647Z,45.37
2019-04-06T13:03:38.189Z,45.37
2019-04-06T13:06:26.481Z,44.55
2019-04-06T13:09:13.371Z,45.06
2019-04-06T13:12:13.764Z,45.24
2019-04-06T13:15:17.393Z,43.97
2019-04-06T13:18:05.983Z,44.01
2019-04-06T13:20:53.178Z,43.10
2019-04-06T13:23:41.481Z,44.23
2019-04-06T13:26:32.902Z,44.62
2019-04-06T13:29:08.827Z,44.39
2019-04-06T13:31:57.893Z,43.75
2019-04-06T13:34:40.636Z,43.71
2019-04-06T13:37:19.891Z,43.13
2019-04-06T13:40:20.405Z,43.21
2019-04-06T13:43:15.145Z,43.17
2019-04-06T13:45:57.073Z,43.99
2019-04-06T13:48:48.883Z,44.15
2019-04-06T13:51:35.540Z,44.48
2019-04-06T13:54:15.295Z,44.77
2019-04-06T13:57:03.713Z,46.98
2019-04-06T13:59:50.587Z,48.06
2019-04-06T14:02:41.616Z,48.31
2019-04-06T14:05:21.882Z,48.31
2019-04-06T14:08:13.301Z,48.40
2019-04-06T14:11:19.822Z,47.50
2019-04-06T14:14:08.371Z,47.59
2019-04-06T14:16:49.196Z,49.08
2019-04-06T14:19:36.225Z,48.98
2019-04-06T14:22:23.244Z,48.66
2019-04-06T14:25:11.632Z,48.62
2019-04-06T14:27:59.490Z,50.53
2019-04-06T14:30:48.191Z,51.57
2019-04-06T14:33:35.312Z,50.88
2019-04-06T14:36:22.957Z,52.04
2019-04-06T14:39:19.712Z,49.96
2019-04-06T14:42:14.053Z,50.55
2019-04-06T14:45:01.748Z,47.94
2019-04-06T14:47:56.071Z,47.71
2019-04-06T14:50:36.892Z,47.60
2019-04-06T14:53:31.755Z,47.99
2019-04-06T14:56:11.641Z,48.35
2019-04-06T14:58:59.959Z,50.48
2019-04-06T15:02:00.869Z,49.29
2019-04-06T15:04:43.451Z,48.82
2019-04-06T15:07:30.585Z,48.31
2019-04-06T15:10:25.299Z,47.84
2019-04-06T15:13:06.994Z,48.38
2019-04-06T15:15:55.441Z,47.62
2019-04-06T15:18:50.371Z,47.36
2019-04-06T15:21:45.557Z,47.76
2019-04-06T15:24:23.164Z,48.54
2019-04-06T15:27:23.505Z,48.72
2019-04-06T15:30:01.041Z,48.94
2019-04-06T15:33:01.568Z,48.67
2019-04-06T15:36:33.978Z,48.25
2019-04-06T15:39:29.077Z,48.38
2019-04-06T15:42:10.900Z,47.55
2019-04-06T15:45:02.295Z,47.26
2019-04-06T15:47:41.157Z,47.24
2019-04-06T15:50:30.075Z,47.34
2019-04-06T15:53:16.207Z,47.30
2019-04-06T15:55:57.578Z,46.30
2019-04-06T15:58:40.170Z,46.19
2019-04-06T16:01:47.333Z,46.62
2019-04-06T16:04:42.088Z,47.21
2019-04-06T16:07:32.480Z,47.90
2019-04-06T16:10:25.102Z,46.77
2019-04-06T16:13:03.182Z,47.18
2019-04-06T16:15:46.612Z,47.00
2019-04-06T16:18:35.270Z,47.61
2019-04-06T16:21:17.457Z,48.11
2019-04-06T16:24:04.797Z,48.37
2019-04-06T16:26:44.440Z,48.84
2019-04-06T16:29:39.088Z,49.11
2019-04-06T16:32:32.387Z,49.21
2019-04-06T16:35:07.775Z,48.95
2019-04-06T16:38:02.223Z,48.56
2019-04-06T16:40:58.212Z,48.68
2019-04-06T16:43:49.498Z,49.48
2019-04-06T16:46:39.329Z,49.68
2019-04-06T16:49:18.579Z,49.91
2019-04-06T16:52:06.823Z,50.00
2019-04-06T16:54:52.968Z,50.43
2019-04-06T16:57:45.991Z,50.88
2019-04-06T17:00:46.638Z,49.77
2019-04-06T17:03:35.669Z,49.97
2019-04-06T17:06:28.100Z,51.11
2019-04-06T17:09:15.710Z,51.41
2019-04-06T17:12:04.994Z,51.77
2019-04-06T17:14:53.259Z,52.28
2019-04-06T17:17:48.836Z,52.55
2019-04-06T17:20:37.271Z,52.93
2019-04-06T17:23:24.581Z,53.16
2019-04-06T17:26:30.773Z,53.37
2019-04-06T17:29:11.017Z,53.67
2019-04-06T17:31:57.958Z,53.90
2019-04-06T17:34:53.866Z,54.55
2019-04-06T17:37:35.172Z,55.04
2019-04-06T17:40:12.204Z,55.10
2019-04-06T17:42:53.993Z,55.77
2019-04-06T17:45:41.385Z,56.31
2019-04-06T17:48:45.359Z,56.72
2019-04-06T17:51:46.370Z,57.29
2019-04-06T17:54:39.470Z,57.96
2019-04-06T17:57:36.789Z,58.63
2019-04-06T18:00:24.102Z,58.93
2019-04-06T18:03:11.262Z,59.25
2019-04-06T18:06:02.559Z,59.78
2019-04-06T18:09:05.733Z,60.11
2019-04-06T18:11:47.981Z,61.09
2019-04-06T18:14:18.519Z,61.21
2019-04-06T18:16:48.288Z,61.47
2019-04-06T18:19:17.760Z,61.66
2019-04-06T18:21:47.243Z,61.97
2019-04-06T18:24:17.172Z,62.24
2019-04-06T18:26:46.498Z,62.49
2019-04-06T18:29:16.206Z,62.93
2019-04-06T18:32:04.817Z,63.27
2019-04-06T18:34:34.192Z,64.01
2019-04-06T18:37:22.522Z,63.43
2019-04-06T18:39:53.539Z,63.69
2019-04-06T18:42:23.200Z,64.37
2019-04-06T18:44:53.064Z,64.58
2019-04-06T18:47:22.520Z,64.96
2019-04-06T18:49:52.378Z,64.54
2019-04-06T18:52:23.508Z,65.03
2019-04-06T18:54:52.993Z,65.16
2019-04-06T18:57:22.389Z,65.70
2019-04-06T18:59:52.048Z,65.83
2019-04-06T19:02:24.236Z,66.54
2019-04-06T19:04:54.281Z,66.90
2019-04-06T19:07:23.915Z,67.31
2019-04-06T19:09:53.437Z,66.82
2019-04-06T19:12:22.839Z,67.57
2019-04-06T19:14:52.476Z,67.31
2019-04-06T19:17:41.874Z,67.44
2019-04-06T19:20:12.747Z,67.50
2019-04-06T19:22:44.435Z,67.50
2019-04-06T19:25:15.320Z,68.10
2019-04-06T19:27:45.307Z,68.33
2019-04-06T19:30:16.867Z,67.99
2019-04-06T19:32:50.959Z,68.09
2019-04-06T19:35:20.959Z,68.25
2019-04-06T19:37:53.135Z,68.66
2019-04-06T19:40:24.334Z,68.49
2019-04-06T19:42:55.433Z,68.34
2019-04-06T19:45:25.165Z,68.14
2019-04-06T19:47:55.064Z,67.82
2019-04-06T19:50:24.846Z,68.32
2019-04-06T19:52:54.206Z,68.87
2019-04-06T19:55:23.681Z,68.86
2019-04-06T19:57:53.401Z,68.49
2019-04-06T20:00:23.436Z,68.68
2019-04-06T20:02:52.980Z,68.18
2019-04-06T20:05:24.062Z,68.69
2019-04-06T20:07:54.058Z,68.57
2019-04-06T20:10:24.032Z,68.77
2019-04-06T20:12:53.662Z,68.55
2019-04-06T20:15:23.438Z,68.95
2019-04-06T20:17:53.791Z,69.35
2019-04-06T20:20:23.285Z,69.46
2019-04-06T20:22:55.310Z,69.76
2019-04-06T20:25:25.267Z,70.38
2019-04-06T20:27:55.383Z,70.51
2019-04-06T20:30:25.572Z,71.32
2019-04-06T20:32:56.802Z,71.30
2019-04-06T20:35:26.724Z,71.16
2019-04-06T20:37:56.525Z,71.30
2019-04-06T20:40:26.219Z,71.11
2019-04-06T20:42:55.610Z,71.77
2019-04-06T20:45:25.801Z,71.78
2019-04-06T20:47:55.443Z,71.52
2019-04-06T20:50:27.386Z,71.57
2019-04-06T20:52:56.986Z,71.68
2019-04-06T20:55:28.097Z,72.05
2019-04-06T20:57:57.566Z,72.22
2019-04-06T21:00:27.028Z,73.02
2019-04-06T21:02:59.139Z,72.68
2019-04-06T21:05:32.526Z,72.89
2019-04-06T21:08:02.774Z,72.76
2019-04-06T21:10:33.440Z,72.62
2019-04-06T21:13:05.693Z,72.99
2019-04-06T21:15:35.177Z,73.16
2019-04-06T21:18:07.655Z,73.27
2019-04-06T21:20:38.586Z,73.53
2019-04-06T21:23:09.129Z,73.45
2019-04-06T21:25:38.724Z,73.85
2019-04-06T21:28:08.142Z,73.64
2019-04-06T21:30:37.794Z,73.90
2019-04-06T21:33:07.949Z,73.94
2019-04-06T21:35:38.099Z,74.18
2019-04-06T21:38:09.018Z,74.55
2019-04-06T21:40:38.672Z,74.85
2019-04-06T21:43:08.228Z,74.90
2019-04-06T21:45:37.726Z,74.89
2019-04-06T21:48:07.242Z,74.96
2019-04-06T21:50:38.651Z,74.43
2019-04-06T21:53:09.483Z,74.28
2019-04-06T21:55:39.088Z,74.37
2019-04-06T21:58:08.741Z,74.27
2019-04-06T22:00:56.654Z,73.93
2019-04-06T22:03:22.224Z,73.87
2019-04-06T22:05:53.485Z,73.81
2019-04-06T22:08:24.961Z,73.96
2019-04-06T22:10:58.602Z,73.99
2019-04-06T22:13:28.479Z,73.71
2019-04-06T22:15:58.195Z,73.75
2019-04-06T22:18:28.253Z,73.91
2019-04-06T22:20:57.880Z,73.92
2019-04-06T22:23:38.777Z,73.97
2019-04-06T22:25:58.552Z,73.93
2019-04-06T22:28:28.118Z,74.00
2019-04-06T22:30:59.857Z,74.25
2019-04-06T22:33:31.378Z,73.70
2019-04-06T22:36:02.175Z,73.85
2019-04-06T22:38:34.450Z,73.38
2019-04-06T22:41:07.135Z,73.26
2019-04-06T22:43:36.756Z,73.42
2019-04-06T22:46:06.920Z,73.12
2019-04-06T22:48:36.936Z,72.59
2019-04-06T22:51:06.873Z,72.27
2019-04-06T22:53:36.553Z,72.31
2019-04-06T22:56:07.305Z,72.45
2019-04-06T22:58:36.917Z,72.51
2019-04-06T23:01:17.414Z,72.55
2019-04-06T23:04:04.537Z,72.18
2019-04-06T23:06:38.387Z,71.89
2019-04-06T23:09:12.292Z,71.87
2019-04-06T23:11:41.898Z,72.15
2019-04-06T23:14:11.458Z,72.96
2019-04-06T23:16:43.754Z,72.73
2019-04-06T23:19:13.381Z,72.11
2019-04-06T23:21:42.922Z,71.74
2019-04-06T23:24:12.501Z,71.58
2019-04-06T23:26:45.629Z,71.39
2019-04-06T23:29:14.948Z,72.15
2019-04-06T23:31:45.220Z,72.63
2019-04-06T23:34:14.607Z,72.33
2019-04-06T23:36:44.170Z,72.04
2019-04-06T23:39:14.354Z,71.85
2019-04-06T23:41:45.643Z,71.88
2019-04-06T23:44:15.614Z,71.81
2019-04-06T23:46:45.274Z,71.56
2019-04-06T23:49:14.710Z,72.07
2019-04-06T23:51:44.145Z,72.04
2019-04-06T23:54:13.669Z,72.14
2019-04-06T23:56:44.397Z,72.47
2019-04-06T23:59:13.867Z,72.57
